Victoria Regional Airport Victoria US
ICAO: KVCT
IATA: VCT
Category: Medium
Scheduled Services: Yes

Elevation: 115 ft
TransAlt. 18000 ft.

Airport Communications:
ASOS:119.025
HOUSTON CNTR:135.05
MONTGOMERY CO RDO:122.2
CTAF/UNICOM:122.7

KVCT Zoom In..

If you have problems with the map follow the link
https://www.worldairports.se/pages/airport.php?
ICAO=KVCT

Runways:

(A) RW 13L length 9111 ft width 150 ft
ILS 111.50 / hdg 126

(B) RW 13R length 4643 ft width 150 ft
---- / hdg 126

(C) RW 18 length 4908 ft width 75 ft
---- / hdg 174

(D) RW 31L length 4643 ft width 150 ft
---- / hdg 306

(E) RW 31R length 9111 ft width 150 ft
---- / hdg 306

(F) RW 36 length 4908 ft width 75 ft
---- / hdg 354

Location; KVCT
Day. 29 / Time. 11.51 Zulu
* Altimeter: 30.03
* Temperature: 07° c. 44.6°f.
* Wind from: 310° Speed 08 kn.
Dewpoint: 03° c.
Visibility: 10 Statute Miles.
Clouds: Clear (automated report).

KVCT 291151Z AUTO 31008KT 10SM CLR 07/03 A3003 RMK AO2 SLP167 70013 T00670028 10117 20061 53012


Wind From 310°
Speed 08 kn.

 
 
jpsmedia worldairports.se 2020   terms of use